createdAt,value
2023-01-20T00:01:12.345Z,3.67
2023-01-20T00:03:40.598Z,3.67
2023-01-20T00:06:08.327Z,3.68
2023-01-20T00:08:35.680Z,3.67
2023-01-20T00:11:07.163Z,3.64
2023-01-20T00:13:35.023Z,3.81
2023-01-20T00:16:06.788Z,3.74
2023-01-20T00:18:35.161Z,3.73
2023-01-20T00:21:03.478Z,3.76
2023-01-20T00:23:30.923Z,3.69
2023-01-20T00:25:58.267Z,3.75
2023-01-20T00:28:25.457Z,3.77
2023-01-20T00:30:52.828Z,3.79
2023-01-20T00:33:20.043Z,3.76
2023-01-20T00:35:47.338Z,3.78
2023-01-20T00:38:15.377Z,3.81
2023-01-20T00:40:42.679Z,3.78
2023-01-20T00:43:12.055Z,3.76
2023-01-20T00:45:40.983Z,3.71
2023-01-20T00:48:08.162Z,3.74
2023-01-20T00:50:35.429Z,3.70
2023-01-20T00:53:02.649Z,3.69
2023-01-20T00:55:29.869Z,3.75
2023-01-20T00:57:57.044Z,3.86
2023-01-20T01:00:26.133Z,3.75
2023-01-20T01:02:55.010Z,3.76
2023-01-20T01:05:22.911Z,3.68
2023-01-20T01:07:50.194Z,3.80
2023-01-20T01:10:17.440Z,3.81
2023-01-20T01:12:44.702Z,3.83
2023-01-20T01:15:12.633Z,3.79
2023-01-20T01:17:39.923Z,3.80
2023-01-20T01:20:07.284Z,3.88
2023-01-20T01:22:34.681Z,3.86
2023-01-20T01:25:02.001Z,3.81
2023-01-20T01:27:30.171Z,3.79
2023-01-20T01:29:57.381Z,3.78
2023-01-20T01:32:24.703Z,3.73
2023-01-20T01:34:51.955Z,3.73
2023-01-20T01:37:19.277Z,3.72
2023-01-20T01:39:46.472Z,3.82
2023-01-20T01:42:14.514Z,3.73
2023-01-20T01:45:00.528Z,3.73
2023-01-20T01:47:27.953Z,3.68
2023-01-20T01:49:55.160Z,3.89
2023-01-20T01:52:22.390Z,3.82
2023-01-20T01:54:50.905Z,3.69
2023-01-20T01:57:18.208Z,3.75
2023-01-20T01:59:45.446Z,3.72
2023-01-20T02:02:13.486Z,3.73
2023-01-20T02:04:42.925Z,3.69
2023-01-20T02:07:15.829Z,3.65
2023-01-20T02:09:43.039Z,3.70
2023-01-20T02:12:13.013Z,3.74
2023-01-20T02:14:46.077Z,3.77
2023-01-20T02:17:34.740Z,3.66
2023-01-20T02:20:17.811Z,3.69
2023-01-20T02:22:54.076Z,3.72
2023-01-20T02:25:27.245Z,3.72
2023-01-20T02:28:05.651Z,3.82
2023-01-20T02:30:32.820Z,3.82
2023-01-20T02:33:06.497Z,3.83
2023-01-20T02:35:33.633Z,3.80
2023-01-20T02:38:13.052Z,3.75
2023-01-20T02:40:43.072Z,3.85
2023-01-20T02:43:35.424Z,3.79
2023-01-20T02:46:13.970Z,3.82
2023-01-20T02:48:47.425Z,3.75
2023-01-20T02:51:17.794Z,3.78
2023-01-20T02:53:48.564Z,3.79
2023-01-20T02:56:17.262Z,3.78
2023-01-20T02:58:47.429Z,3.79
2023-01-20T03:01:17.344Z,3.86
2023-01-20T03:03:46.644Z,3.84
2023-01-20T03:06:19.337Z,3.90
2023-01-20T03:08:48.839Z,3.85
2023-01-20T03:11:16.391Z,3.83
2023-01-20T03:13:52.630Z,3.80
2023-01-20T03:16:22.293Z,3.86
2023-01-20T03:18:50.647Z,3.87
2023-01-20T03:21:18.585Z,3.90
2023-01-20T03:23:50.511Z,3.89
2023-01-20T03:26:19.146Z,3.84
2023-01-20T03:28:47.146Z,3.86
2023-01-20T03:31:20.214Z,3.96
2023-01-20T03:33:49.103Z,4.01
2023-01-20T03:36:16.989Z,4.01
2023-01-20T03:38:44.949Z,3.94
2023-01-20T03:41:20.247Z,3.99
2023-01-20T03:44:07.662Z,4.02
2023-01-20T03:47:08.727Z,4.06
2023-01-20T03:49:41.103Z,4.02
2023-01-20T03:52:47.856Z,4.16
2023-01-20T03:55:17.027Z,4.13
2023-01-20T03:57:48.613Z,4.17
2023-01-20T04:00:16.690Z,4.09
2023-01-20T04:02:43.908Z,4.04
2023-01-20T04:05:11.518Z,3.98
2023-01-20T04:07:40.437Z,4.06
2023-01-20T04:10:12.236Z,4.05
2023-01-20T04:12:40.039Z,4.03
2023-01-20T04:15:08.097Z,4.03
2023-01-20T04:17:35.716Z,4.04
2023-01-20T04:20:06.729Z,4.02
2023-01-20T04:22:46.243Z,4.03
2023-01-20T04:25:26.133Z,4.03
2023-01-20T04:27:53.379Z,4.09
2023-01-20T04:30:20.607Z,4.08
2023-01-20T04:32:47.802Z,4.21
2023-01-20T04:35:16.235Z,4.23
2023-01-20T04:37:43.739Z,4.09
2023-01-20T04:40:11.193Z,4.04
2023-01-20T04:42:38.634Z,4.17
2023-01-20T04:45:06.059Z,4.08
2023-01-20T04:47:33.939Z,4.12
2023-01-20T04:50:01.114Z,4.26
2023-01-20T04:52:28.475Z,4.17
2023-01-20T04:54:55.729Z,4.22
2023-01-20T04:57:23.016Z,4.22
2023-01-20T04:59:50.200Z,4.12
2023-01-20T05:02:17.456Z,4.03
2023-01-20T05:04:45.425Z,4.13
2023-01-20T05:07:12.696Z,4.11
2023-01-20T05:09:39.858Z,4.21
2023-01-20T05:12:07.196Z,4.19
2023-01-20T05:14:34.378Z,4.23
2023-01-20T05:17:01.903Z,4.24
2023-01-20T05:19:29.204Z,4.24
2023-01-20T05:21:56.476Z,4.24
2023-01-20T05:24:23.837Z,4.27
2023-01-20T05:26:51.086Z,4.34
2023-01-20T05:29:18.436Z,4.33
2023-01-20T05:31:45.660Z,4.34
2023-01-20T05:34:12.903Z,4.31
2023-01-20T05:36:40.145Z,4.34
2023-01-20T05:39:07.325Z,4.27
2023-01-20T05:41:34.505Z,4.26
2023-01-20T05:44:01.720Z,4.28
2023-01-20T05:46:29.032Z,4.25
2023-01-20T05:48:56.279Z,4.31
2023-01-20T05:51:25.828Z,4.26
2023-01-20T05:53:53.018Z,4.28
2023-01-20T05:56:20.277Z,4.38
2023-01-20T05:58:47.659Z,4.39
2023-01-20T06:01:15.076Z,4.39
2023-01-20T06:03:42.538Z,4.30
2023-01-20T06:06:14.365Z,4.37
2023-01-20T06:08:42.077Z,4.46
2023-01-20T06:11:09.340Z,4.47
2023-01-20T06:13:36.798Z,4.52
2023-01-20T06:16:07.035Z,4.43
2023-01-20T06:18:34.699Z,4.38
2023-01-20T06:21:01.980Z,4.40
2023-01-20T06:23:29.208Z,4.43
2023-01-20T06:26:03.795Z,4.38
2023-01-20T06:28:31.091Z,4.42
2023-01-20T06:31:02.613Z,4.36
2023-01-20T06:33:30.127Z,4.37
2023-01-20T06:35:57.748Z,4.47
2023-01-20T06:38:25.809Z,4.48
2023-01-20T06:41:03.684Z,4.50
2023-01-20T06:43:32.697Z,4.51
2023-01-20T06:46:00.669Z,4.55
2023-01-20T06:48:27.992Z,4.49
2023-01-20T06:51:02.378Z,4.51
2023-01-20T06:53:29.697Z,4.46
2023-01-20T06:55:57.794Z,4.52
2023-01-20T06:58:26.143Z,4.57
2023-01-20T07:00:53.815Z,4.62
2023-01-20T07:03:21.040Z,4.60
2023-01-20T07:05:57.596Z,4.65
2023-01-20T07:08:24.955Z,4.67
2023-01-20T07:10:52.148Z,4.63
2023-01-20T07:13:19.430Z,4.60
2023-01-20T07:15:46.664Z,4.57
2023-01-20T07:18:14.069Z,4.57
2023-01-20T07:20:41.438Z,4.56
2023-01-20T07:23:08.633Z,4.54
2023-01-20T07:25:38.081Z,4.57
2023-01-20T07:28:05.448Z,4.57
2023-01-20T07:30:32.697Z,4.58
2023-01-20T07:32:59.912Z,4.60
2023-01-20T07:35:27.207Z,4.60
2023-01-20T07:37:54.428Z,4.61
2023-01-20T07:40:21.751Z,4.61
2023-01-20T07:42:48.976Z,4.68
2023-01-20T07:45:16.849Z,4.64
2023-01-20T07:47:44.220Z,4.59
2023-01-20T07:50:11.496Z,4.61
2023-01-20T07:52:38.702Z,4.65
2023-01-20T07:55:06.045Z,4.70
2023-01-20T07:57:33.802Z,4.68
2023-01-20T08:00:01.068Z,4.72
2023-01-20T08:02:28.446Z,4.68
2023-01-20T08:04:55.793Z,4.63
2023-01-20T08:07:22.998Z,4.63
2023-01-20T08:09:50.352Z,4.60
2023-01-20T08:12:17.569Z,4.56
2023-01-20T08:14:45.306Z,4.48
2023-01-20T08:17:12.579Z,4.55
2023-01-20T08:19:39.749Z,4.63
2023-01-20T08:22:06.951Z,4.62
2023-01-20T08:24:34.123Z,4.57
2023-01-20T08:27:01.309Z,4.62
2023-01-20T08:29:28.551Z,4.59
2023-01-20T08:31:55.824Z,4.65
2023-01-20T08:34:26.113Z,4.63
2023-01-20T08:36:54.268Z,4.66
2023-01-20T08:39:21.458Z,4.67
2023-01-20T08:41:49.289Z,4.73
2023-01-20T08:44:17.008Z,4.78
2023-01-20T08:46:44.791Z,4.73
2023-01-20T08:49:16.182Z,4.71
2023-01-20T08:51:44.720Z,4.84
2023-01-20T08:54:12.013Z,4.85
2023-01-20T08:56:39.244Z,4.84
2023-01-20T08:59:07.037Z,4.91
2023-01-20T09:01:36.397Z,4.94
2023-01-20T09:04:07.027Z,4.86
2023-01-20T09:06:38.954Z,4.90
2023-01-20T09:09:07.805Z,4.94
2023-01-20T09:11:35.655Z,5.02
2023-01-20T09:14:03.968Z,5.07
2023-01-20T09:16:31.251Z,5.10
2023-01-20T09:18:58.583Z,5.01
2023-01-20T09:21:25.782Z,5.11
2023-01-20T09:23:53.231Z,5.05
2023-01-20T09:26:34.994Z,4.99
2023-01-20T09:29:09.567Z,4.97
2023-01-20T09:31:38.309Z,5.01
2023-01-20T09:34:05.819Z,5.01
2023-01-20T09:36:33.073Z,4.99
2023-01-20T09:39:18.773Z,5.02
2023-01-20T09:42:20.051Z,5.10
2023-01-20T09:44:50.055Z,5.12
2023-01-20T09:47:23.120Z,5.11
2023-01-20T09:50:11.997Z,5.16
2023-01-20T09:52:57.892Z,5.18
2023-01-20T09:55:29.628Z,5.19
2023-01-20T09:58:00.701Z,5.24
2023-01-20T10:00:29.778Z,5.27
2023-01-20T10:03:09.847Z,5.19
2023-01-20T10:05:38.649Z,5.21
2023-01-20T10:08:19.022Z,5.30
2023-01-20T10:10:46.218Z,5.37
2023-01-20T10:13:34.152Z,5.39
2023-01-20T10:16:05.557Z,5.44
2023-01-20T10:18:39.669Z,5.49
2023-01-20T10:21:06.939Z,5.62
2023-01-20T10:23:39.905Z,5.65
2023-01-20T10:26:14.055Z,5.66
2023-01-20T10:29:01.555Z,5.58
2023-01-20T10:31:31.230Z,5.56
2023-01-20T10:34:18.766Z,5.53
2023-01-20T10:36:50.696Z,5.58
2023-01-20T10:39:25.267Z,5.66
2023-01-20T10:41:58.127Z,5.64
2023-01-20T10:44:25.408Z,5.71
2023-01-20T10:47:07.844Z,5.69
2023-01-20T10:49:53.853Z,5.72
2023-01-20T10:52:23.911Z,5.75
2023-01-20T10:55:09.959Z,5.79
2023-01-20T10:57:38.405Z,5.79
2023-01-20T11:00:08.242Z,5.94
2023-01-20T11:02:38.101Z,5.80
2023-01-20T11:05:19.488Z,5.78
2023-01-20T11:07:47.275Z,5.78
2023-01-20T11:10:14.902Z,5.81
2023-01-20T11:12:42.926Z,5.85
2023-01-20T11:15:16.321Z,5.79
2023-01-20T11:17:43.631Z,5.79
2023-01-20T11:20:19.503Z,5.69
2023-01-20T11:22:48.137Z,5.72
2023-01-20T11:25:27.730Z,5.73
2023-01-20T11:27:55.039Z,5.79
2023-01-20T11:30:33.570Z,5.75
2023-01-20T11:33:08.106Z,5.75
2023-01-20T11:35:35.447Z,5.80
2023-01-20T11:38:23.185Z,5.76
2023-01-20T11:40:54.166Z,5.68
2023-01-20T11:43:31.620Z,5.77
2023-01-20T11:46:19.598Z,5.67
2023-01-20T11:48:47.159Z,5.71
2023-01-20T11:51:27.217Z,5.79
2023-01-20T11:54:08.190Z,6.01
2023-01-20T11:56:39.825Z,5.94
2023-01-20T11:59:18.398Z,5.91
2023-01-20T12:01:55.974Z,5.81
2023-01-20T12:04:36.748Z,5.85
2023-01-20T12:07:15.421Z,5.82
2023-01-20T12:09:49.205Z,5.78
2023-01-20T12:12:22.390Z,5.63
2023-01-20T12:15:12.898Z,5.58
2023-01-20T12:17:44.983Z,5.56
2023-01-20T12:20:30.653Z,5.44
2023-01-20T12:23:21.275Z,5.54
2023-01-20T12:25:51.631Z,5.59
2023-01-20T12:28:21.813Z,5.65
2023-01-20T12:30:55.788Z,5.63
2023-01-20T12:33:28.925Z,5.59
2023-01-20T12:36:08.080Z,5.57
2023-01-20T12:38:47.513Z,5.65
2023-01-20T12:41:30.917Z,5.64
2023-01-20T12:44:11.643Z,5.56
2023-01-20T12:47:05.324Z,5.64
2023-01-20T12:49:32.512Z,5.58
2023-01-20T12:52:16.247Z,5.50
2023-01-20T12:54:48.787Z,5.46
2023-01-20T12:57:25.343Z,5.44
2023-01-20T13:00:15.862Z,5.38
2023-01-20T13:02:58.799Z,5.43
2023-01-20T13:05:35.254Z,5.30
2023-01-20T13:08:23.319Z,5.16
2023-01-20T13:11:00.199Z,5.18
2023-01-20T13:13:56.715Z,5.10
2023-01-20T13:16:43.394Z,5.19
2023-01-20T13:19:13.887Z,5.15
2023-01-20T13:21:42.625Z,5.14
2023-01-20T13:24:18.877Z,5.06
2023-01-20T13:26:49.703Z,5.05
2023-01-20T13:29:41.715Z,4.98
2023-01-20T13:32:27.916Z,4.93
2023-01-20T13:34:55.556Z,4.93
2023-01-20T13:37:24.511Z,4.97
2023-01-20T13:39:54.974Z,4.99
2023-01-20T13:42:42.656Z,4.99
2023-01-20T13:45:13.083Z,5.01
2023-01-20T13:47:52.709Z,4.99
2023-01-20T13:50:23.874Z,5.05
2023-01-20T13:52:51.039Z,5.03
2023-01-20T13:55:27.516Z,5.03
2023-01-20T13:57:54.705Z,5.03
2023-01-20T14:00:22.406Z,5.02
2023-01-20T14:02:50.080Z,4.94
2023-01-20T14:05:21.813Z,4.92
2023-01-20T14:07:49.083Z,4.98
2023-01-20T14:10:16.863Z,4.93
2023-01-20T14:12:44.331Z,4.80
2023-01-20T14:15:25.294Z,4.82
2023-01-20T14:17:53.471Z,4.78
2023-01-20T14:20:23.743Z,4.62
2023-01-20T14:22:51.074Z,4.59
2023-01-20T14:25:25.848Z,4.63
2023-01-20T14:27:53.502Z,4.69
2023-01-20T14:30:25.228Z,4.61
2023-01-20T14:32:52.825Z,4.60
2023-01-20T14:35:27.637Z,4.62
2023-01-20T14:37:55.061Z,4.64
2023-01-20T14:40:40.704Z,4.64
2023-01-20T14:43:19.593Z,4.57
2023-01-20T14:45:48.918Z,4.59
2023-01-20T14:48:32.441Z,4.62
2023-01-20T14:51:02.791Z,4.53
2023-01-20T14:53:30.032Z,4.50
2023-01-20T14:56:00.916Z,4.47
2023-01-20T14:58:30.670Z,4.47
2023-01-20T15:01:02.131Z,4.41
2023-01-20T15:03:30.147Z,4.34
2023-01-20T15:05:58.896Z,4.27
2023-01-20T15:08:27.231Z,4.28
2023-01-20T15:11:13.179Z,4.26
2023-01-20T15:13:41.506Z,4.28
2023-01-20T15:16:19.521Z,4.23
2023-01-20T15:19:05.447Z,4.21
2023-01-20T15:21:35.589Z,4.23
2023-01-20T15:24:15.152Z,4.15
2023-01-20T15:26:42.440Z,4.20
2023-01-20T15:29:29.318Z,4.13
2023-01-20T15:32:00.551Z,4.13
2023-01-20T15:34:29.995Z,4.16
2023-01-20T15:36:59.605Z,4.12
2023-01-20T15:39:30.437Z,4.12
2023-01-20T15:41:58.524Z,4.03
2023-01-20T15:44:26.576Z,4.04
2023-01-20T15:46:57.095Z,3.97
2023-01-20T15:49:25.618Z,4.07
2023-01-20T15:51:55.333Z,4.04
2023-01-20T15:54:22.981Z,4.04
2023-01-20T15:56:50.195Z,4.04
2023-01-20T15:59:18.624Z,3.99
2023-01-20T16:01:51.907Z,4.02
2023-01-20T16:04:19.184Z,4.06
2023-01-20T16:06:46.431Z,3.99
2023-01-20T16:09:26.588Z,4.02
2023-01-20T16:11:54.556Z,4.05
2023-01-20T16:14:21.838Z,4.04
2023-01-20T16:16:49.156Z,3.99
2023-01-20T16:19:16.981Z,4.01
2023-01-20T16:21:45.627Z,3.95
2023-01-20T16:24:13.074Z,4.04
2023-01-20T16:26:40.892Z,4.01
2023-01-20T16:29:09.134Z,4.02
2023-01-20T16:31:36.528Z,4.01
2023-01-20T16:34:05.114Z,4.06
2023-01-20T16:36:32.411Z,4.12
2023-01-20T16:38:59.624Z,4.10
2023-01-20T16:41:28.100Z,4.08
2023-01-20T16:43:55.559Z,4.12
2023-01-20T16:46:24.379Z,4.15
2023-01-20T16:48:52.188Z,4.18
2023-01-20T16:51:20.660Z,4.17
2023-01-20T16:53:47.933Z,4.15
2023-01-20T16:56:25.388Z,4.09
2023-01-20T16:58:53.452Z,4.06
2023-01-20T17:01:24.594Z,4.02
2023-01-20T17:03:52.793Z,4.08
2023-01-20T17:06:21.071Z,4.06
2023-01-20T17:08:58.559Z,4.01
2023-01-20T17:11:27.193Z,4.07
2023-01-20T17:13:55.154Z,4.09
2023-01-20T17:16:22.998Z,4.08
2023-01-20T17:18:51.030Z,4.08
2023-01-20T17:21:20.693Z,4.15
2023-01-20T17:23:51.480Z,4.11
2023-01-20T17:26:19.174Z,4.07
2023-01-20T17:28:46.707Z,3.91
2023-01-20T17:31:14.311Z,3.93
2023-01-20T17:33:47.396Z,3.88
2023-01-20T17:36:16.854Z,3.95
2023-01-20T17:38:44.462Z,3.99
2023-01-20T17:41:12.269Z,4.01
2023-01-20T17:43:41.093Z,3.97
2023-01-20T17:46:14.872Z,4.02
2023-01-20T17:48:42.468Z,4.06
2023-01-20T17:51:14.342Z,4.01
2023-01-20T17:53:41.740Z,4.02
2023-01-20T17:56:12.926Z,3.96
2023-01-20T17:58:41.551Z,3.96
2023-01-20T18:01:12.828Z,3.90
2023-01-20T18:03:42.908Z,3.96
2023-01-20T18:06:11.430Z,4.06
2023-01-20T18:08:38.989Z,4.01
2023-01-20T18:11:07.728Z,3.97
2023-01-20T18:13:35.522Z,4.04
2023-01-20T18:16:04.362Z,4.11
2023-01-20T18:18:31.919Z,4.10
2023-01-20T18:21:12.430Z,4.11
2023-01-20T18:23:39.975Z,4.16
2023-01-20T18:26:07.978Z,4.17
2023-01-20T18:28:36.167Z,4.25
2023-01-20T18:31:08.627Z,4.09
2023-01-20T18:33:41.103Z,4.01
2023-01-20T18:36:09.668Z,4.11
2023-01-20T18:38:38.505Z,4.04
2023-01-20T18:41:06.758Z,3.98
2023-01-20T18:43:33.969Z,4.01
2023-01-20T18:46:01.190Z,3.97
2023-01-20T18:48:28.447Z,3.99
2023-01-20T18:51:02.837Z,4.00
2023-01-20T18:53:30.746Z,3.84
2023-01-20T18:56:05.882Z,3.80
2023-01-20T18:58:33.935Z,3.82
2023-01-20T19:01:05.292Z,3.91
2023-01-20T19:03:35.573Z,3.87
2023-01-20T19:06:07.014Z,3.82
2023-01-20T19:08:34.413Z,3.82
2023-01-20T19:11:02.397Z,3.76
2023-01-20T19:13:29.906Z,3.75
2023-01-20T19:15:57.410Z,3.75
2023-01-20T19:18:25.003Z,3.65
2023-01-20T19:20:52.416Z,3.68
2023-01-20T19:23:19.892Z,3.66
2023-01-20T19:25:47.172Z,3.53
2023-01-20T19:28:14.605Z,3.58
2023-01-20T19:30:41.918Z,3.52
2023-01-20T19:33:12.254Z,3.55
2023-01-20T19:35:42.004Z,3.55
2023-01-20T19:38:09.366Z,3.59
2023-01-20T19:40:36.540Z,3.52
2023-01-20T19:43:03.712Z,3.61
2023-01-20T19:45:44.930Z,3.55
2023-01-20T19:48:12.858Z,3.51
2023-01-20T19:50:40.194Z,3.54
2023-01-20T19:53:07.376Z,3.51
2023-01-20T19:55:34.603Z,3.51
2023-01-20T19:58:01.828Z,3.50
2023-01-20T20:00:29.077Z,3.47
2023-01-20T20:02:56.406Z,3.39
2023-01-20T20:05:23.658Z,3.34
2023-01-20T20:07:51.265Z,3.40
2023-01-20T20:10:18.909Z,3.40
2023-01-20T20:12:46.352Z,3.35
2023-01-20T20:15:13.640Z,3.38
2023-01-20T20:17:40.870Z,3.38
2023-01-20T20:20:08.375Z,3.31
2023-01-20T20:22:35.638Z,3.35
2023-01-20T20:25:02.886Z,3.38
2023-01-20T20:27:30.168Z,3.29
2023-01-20T20:30:01.286Z,3.26
2023-01-20T20:32:28.539Z,3.25
2023-01-20T20:34:55.857Z,3.21
2023-01-20T20:37:23.064Z,3.26
2023-01-20T20:39:50.261Z,3.21
2023-01-20T20:42:17.460Z,3.18
2023-01-20T20:44:44.725Z,3.17
2023-01-20T20:47:11.908Z,3.19
2023-01-20T20:49:39.470Z,3.23
2023-01-20T20:52:06.717Z,3.16
2023-01-20T20:54:33.961Z,3.19
2023-01-20T20:57:01.171Z,3.19
2023-01-20T20:59:28.455Z,3.21
2023-01-20T21:01:55.698Z,3.18
2023-01-20T21:04:23.026Z,3.16
2023-01-20T21:06:50.245Z,3.13
2023-01-20T21:09:17.468Z,3.06
2023-01-20T21:11:44.645Z,3.05
2023-01-20T21:14:11.926Z,3.01
2023-01-20T21:16:40.100Z,2.95
2023-01-20T21:19:07.578Z,2.89
2023-01-20T21:21:34.918Z,2.86
2023-01-20T21:24:02.165Z,2.82
2023-01-20T21:26:30.660Z,2.89
2023-01-20T21:29:01.970Z,2.82
2023-01-20T21:31:32.186Z,2.77
2023-01-20T21:34:00.635Z,2.81
2023-01-20T21:36:28.734Z,2.81
2023-01-20T21:38:55.983Z,2.76
2023-01-20T21:41:23.459Z,2.77
2023-01-20T21:44:09.362Z,2.74
2023-01-20T21:46:39.363Z,2.65
2023-01-20T21:49:27.911Z,2.64
2023-01-20T21:52:14.448Z,2.61
2023-01-20T21:54:42.129Z,2.64
2023-01-20T21:57:09.399Z,2.61
2023-01-20T21:59:36.740Z,2.57
2023-01-20T22:02:04.110Z,2.61
2023-01-20T22:04:32.129Z,2.64
2023-01-20T22:06:59.388Z,2.64
2023-01-20T22:09:26.700Z,2.65
2023-01-20T22:11:53.940Z,2.61
2023-01-20T22:14:21.199Z,2.61
2023-01-20T22:16:48.538Z,2.54
2023-01-20T22:19:15.812Z,2.46
2023-01-20T22:21:43.122Z,2.46
2023-01-20T22:24:10.952Z,2.47
2023-01-20T22:26:38.387Z,2.38
2023-01-20T22:29:05.608Z,2.35
2023-01-20T22:31:34.362Z,2.34
2023-01-20T22:34:06.429Z,2.23
2023-01-20T22:36:33.923Z,2.22
2023-01-20T22:39:01.774Z,2.26
2023-01-20T22:41:29.350Z,2.21
2023-01-20T22:43:56.600Z,2.20
2023-01-20T22:46:25.305Z,2.18
2023-01-20T22:48:52.756Z,2.18
2023-01-20T22:51:21.447Z,2.20
2023-01-20T22:53:49.300Z,2.18
2023-01-20T22:56:18.135Z,2.17
2023-01-20T22:58:45.818Z,2.15
2023-01-20T23:01:14.161Z,2.14
2023-01-20T23:03:41.964Z,2.05
2023-01-20T23:06:09.347Z,2.04
2023-01-20T23:08:36.747Z,2.05
2023-01-20T23:11:09.156Z,2.04
2023-01-20T23:13:36.713Z,2.03
2023-01-20T23:16:05.099Z,2.04
2023-01-20T23:18:34.872Z,2.04
2023-01-20T23:21:02.091Z,2.00
2023-01-20T23:23:29.503Z,1.99
2023-01-20T23:26:07.411Z,1.94
2023-01-20T23:28:35.079Z,1.92
2023-01-20T23:31:03.374Z,1.94
2023-01-20T23:33:31.023Z,1.93
2023-01-20T23:36:05.336Z,1.91
2023-01-20T23:38:41.464Z,1.91
2023-01-20T23:41:09.194Z,1.85
2023-01-20T23:43:36.653Z,1.79
2023-01-20T23:46:05.063Z,1.79
2023-01-20T23:48:32.750Z,1.77
2023-01-20T23:51:00.397Z,1.73
2023-01-20T23:53:28.535Z,1.72
2023-01-20T23:56:02.519Z,1.70
2023-01-20T23:58:30.073Z,1.76
